sensor_id;sensor_type;location;lat;lon;timestamp;P1;durP1;ratioP1;P2;durP2;ratioP2
52284;SDS011;38238;53.304;6.606;2022-11-20T00:00:52;18.70;;;17.05;;
52284;SDS011;38238;53.304;6.606;2022-11-20T00:03:17;18.23;;;16.33;;
52284;SDS011;38238;53.304;6.606;2022-11-20T00:05:43;17.58;;;15.98;;
52284;SDS011;38238;53.304;6.606;2022-11-20T00:08:09;15.63;;;13.98;;
52284;SDS011;38238;53.304;6.606;2022-11-20T00:10:36;16.38;;;14.70;;
52284;SDS011;38238;53.304;6.606;2022-11-20T00:13:02;16.27;;;14.68;;
52284;SDS011;38238;53.304;6.606;2022-11-20T00:15:28;17.63;;;15.82;;
52284;SDS011;38238;53.304;6.606;2022-11-20T00:17:54;15.27;;;13.68;;
52284;SDS011;38238;53.304;6.606;2022-11-20T00:20:20;14.80;;;13.27;;
52284;SDS011;38238;53.304;6.606;2022-11-20T00:22:46;15.25;;;13.70;;
52284;SDS011;38238;53.304;6.606;2022-11-20T00:25:11;15.18;;;13.55;;
52284;SDS011;38238;53.304;6.606;2022-11-20T00:27:37;15.10;;;13.60;;
52284;SDS011;38238;53.304;6.606;2022-11-20T00:30:03;16.73;;;15.02;;
52284;SDS011;38238;53.304;6.606;2022-11-20T00:32:29;15.98;;;14.27;;
52284;SDS011;38238;53.304;6.606;2022-11-20T00:34:55;17.05;;;13.93;;
52284;SDS011;38238;53.304;6.606;2022-11-20T00:37:21;16.00;;;13.82;;
52284;SDS011;38238;53.304;6.606;2022-11-20T00:39:46;14.73;;;13.10;;
52284;SDS011;38238;53.304;6.606;2022-11-20T00:42:12;15.15;;;13.07;;
52284;SDS011;38238;53.304;6.606;2022-11-20T00:44:38;16.02;;;14.43;;
52284;SDS011;38238;53.304;6.606;2022-11-20T00:47:04;15.75;;;14.18;;
52284;SDS011;38238;53.304;6.606;2022-11-20T00:49:29;16.02;;;14.43;;
52284;SDS011;38238;53.304;6.606;2022-11-20T00:51:55;15.60;;;14.02;;
52284;SDS011;38238;53.304;6.606;2022-11-20T00:54:21;15.35;;;13.77;;
52284;SDS011;38238;53.304;6.606;2022-11-20T00:56:46;17.90;;;16.20;;
52284;SDS011;38238;53.304;6.606;2022-11-20T00:59:12;16.77;;;15.07;;
52284;SDS011;38238;53.304;6.606;2022-11-20T01:01:38;15.88;;;14.27;;
52284;SDS011;38238;53.304;6.606;2022-11-20T01:04:04;15.40;;;13.80;;
52284;SDS011;38238;53.304;6.606;2022-11-20T01:06:31;16.13;;;14.50;;
52284;SDS011;38238;53.304;6.606;2022-11-20T01:08:58;14.30;;;12.70;;
52284;SDS011;38238;53.304;6.606;2022-11-20T01:11:27;16.23;;;14.63;;
52284;SDS011;38238;53.304;6.606;2022-11-20T01:13:56;16.52;;;14.85;;
52284;SDS011;38238;53.304;6.606;2022-11-20T01:16:27;15.98;;;14.48;;
52284;SDS011;38238;53.304;6.606;2022-11-20T01:18:56;16.10;;;14.57;;
52284;SDS011;38238;53.304;6.606;2022-11-20T01:21:28;17.08;;;15.27;;
52284;SDS011;38238;53.304;6.606;2022-11-20T01:23:55;15.05;;;13.52;;
52284;SDS011;38238;53.304;6.606;2022-11-20T01:26:22;17.35;;;15.75;;
52284;SDS011;38238;53.304;6.606;2022-11-20T01:28:50;18.73;;;17.02;;
52284;SDS011;38238;53.304;6.606;2022-11-20T01:31:20;17.17;;;15.60;;
52284;SDS011;38238;53.304;6.606;2022-11-20T01:33:54;17.48;;;15.88;;
52284;SDS011;38238;53.304;6.606;2022-11-20T01:36:23;16.23;;;14.63;;
52284;SDS011;38238;53.304;6.606;2022-11-20T01:38:53;17.20;;;15.45;;
52284;SDS011;38238;53.304;6.606;2022-11-20T01:41:21;15.73;;;14.10;;
52284;SDS011;38238;53.304;6.606;2022-11-20T01:44:06;17.40;;;15.73;;
52284;SDS011;38238;53.304;6.606;2022-11-20T01:46:33;16.17;;;14.57;;
52284;SDS011;38238;53.304;6.606;2022-11-20T01:51:42;15.95;;;14.43;;
52284;SDS011;38238;53.304;6.606;2022-11-20T01:54:15;15.93;;;14.32;;
52284;SDS011;38238;53.304;6.606;2022-11-20T01:56:45;15.60;;;12.85;;
52284;SDS011;38238;53.304;6.606;2022-11-20T01:59:13;17.38;;;15.80;;
52284;SDS011;38238;53.304;6.606;2022-11-20T02:01:41;16.40;;;14.77;;
52284;SDS011;38238;53.304;6.606;2022-11-20T02:04:07;16.15;;;14.48;;
52284;SDS011;38238;53.304;6.606;2022-11-20T02:06:35;17.25;;;15.50;;
52284;SDS011;38238;53.304;6.606;2022-11-20T02:09:10;17.77;;;16.00;;
52284;SDS011;38238;53.304;6.606;2022-11-20T02:11:36;16.42;;;14.80;;
52284;SDS011;38238;53.304;6.606;2022-11-20T02:14:02;15.60;;;14.05;;
52284;SDS011;38238;53.304;6.606;2022-11-20T02:16:29;16.67;;;14.40;;
52284;SDS011;38238;53.304;6.606;2022-11-20T02:18:58;15.43;;;13.95;;
52284;SDS011;38238;53.304;6.606;2022-11-20T02:21:28;15.82;;;14.18;;
52284;SDS011;38238;53.304;6.606;2022-11-20T02:26:30;17.25;;;15.50;;
52284;SDS011;38238;53.304;6.606;2022-11-20T02:28:58;14.93;;;13.30;;
52284;SDS011;38238;53.304;6.606;2022-11-20T02:31:25;16.73;;;15.05;;
52284;SDS011;38238;53.304;6.606;2022-11-20T02:33:55;16.63;;;13.55;;
52284;SDS011;38238;53.304;6.606;2022-11-20T02:36:21;15.55;;;14.02;;
52284;SDS011;38238;53.304;6.606;2022-11-20T02:38:48;14.40;;;12.85;;
52284;SDS011;38238;53.304;6.606;2022-11-20T02:41:15;15.23;;;13.65;;
52284;SDS011;38238;53.304;6.606;2022-11-20T02:43:40;14.85;;;13.32;;
52284;SDS011;38238;53.304;6.606;2022-11-20T02:46:07;16.67;;;15.18;;
52284;SDS011;38238;53.304;6.606;2022-11-20T02:48:33;16.33;;;14.73;;
52284;SDS011;38238;53.304;6.606;2022-11-20T02:50:58;16.15;;;14.55;;
52284;SDS011;38238;53.304;6.606;2022-11-20T02:53:24;15.95;;;14.30;;
52284;SDS011;38238;53.304;6.606;2022-11-20T02:55:50;13.93;;;12.57;;
52284;SDS011;38238;53.304;6.606;2022-11-20T02:58:16;14.35;;;12.57;;
52284;SDS011;38238;53.304;6.606;2022-11-20T03:00:41;14.95;;;13.32;;
52284;SDS011;38238;53.304;6.606;2022-11-20T03:03:07;14.85;;;13.27;;
52284;SDS011;38238;53.304;6.606;2022-11-20T03:05:33;14.15;;;12.23;;
52284;SDS011;38238;53.304;6.606;2022-11-20T03:07:59;15.93;;;14.25;;
52284;SDS011;38238;53.304;6.606;2022-11-20T03:10:24;14.80;;;12.77;;
52284;SDS011;38238;53.304;6.606;2022-11-20T03:12:54;17.45;;;14.80;;
52284;SDS011;38238;53.304;6.606;2022-11-20T03:15:21;16.35;;;14.65;;
52284;SDS011;38238;53.304;6.606;2022-11-20T03:17:52;14.73;;;12.60;;
52284;SDS011;38238;53.304;6.606;2022-11-20T03:20:19;16.23;;;14.52;;
52284;SDS011;38238;53.304;6.606;2022-11-20T03:22:45;15.55;;;13.60;;
52284;SDS011;38238;53.304;6.606;2022-11-20T03:25:11;17.10;;;14.82;;
52284;SDS011;38238;53.304;6.606;2022-11-20T03:27:36;15.48;;;13.75;;
52284;SDS011;38238;53.304;6.606;2022-11-20T03:30:02;15.90;;;14.20;;
52284;SDS011;38238;53.304;6.606;2022-11-20T03:32:31;16.48;;;14.32;;
52284;SDS011;38238;53.304;6.606;2022-11-20T03:34:57;15.18;;;12.68;;
52284;SDS011;38238;53.304;6.606;2022-11-20T03:37:23;17.00;;;14.27;;
52284;SDS011;38238;53.304;6.606;2022-11-20T03:39:48;15.45;;;13.80;;
52284;SDS011;38238;53.304;6.606;2022-11-20T03:42:14;16.73;;;14.93;;
52284;SDS011;38238;53.304;6.606;2022-11-20T03:44:58;14.05;;;12.43;;
52284;SDS011;38238;53.304;6.606;2022-11-20T03:47:24;15.73;;;14.07;;
52284;SDS011;38238;53.304;6.606;2022-11-20T03:49:50;14.63;;;12.73;;
52284;SDS011;38238;53.304;6.606;2022-11-20T03:52:15;16.55;;;14.85;;
52284;SDS011;38238;53.304;6.606;2022-11-20T03:54:41;16.77;;;15.07;;
52284;SDS011;38238;53.304;6.606;2022-11-20T03:57:07;15.18;;;13.68;;
52284;SDS011;38238;53.304;6.606;2022-11-20T03:59:32;17.05;;;15.35;;
52284;SDS011;38238;53.304;6.606;2022-11-20T04:01:58;16.75;;;15.07;;
52284;SDS011;38238;53.304;6.606;2022-11-20T04:04:24;16.48;;;14.88;;
52284;SDS011;38238;53.304;6.606;2022-11-20T04:06:49;16.58;;;14.80;;
52284;SDS011;38238;53.304;6.606;2022-11-20T04:09:15;17.75;;;16.15;;
52284;SDS011;38238;53.304;6.606;2022-11-20T04:11:41;16.60;;;15.00;;
52284;SDS011;38238;53.304;6.606;2022-11-20T04:14:11;15.68;;;14.27;;
52284;SDS011;38238;53.304;6.606;2022-11-20T04:16:39;16.40;;;14.80;;
52284;SDS011;38238;53.304;6.606;2022-11-20T04:19:08;15.68;;;14.15;;
52284;SDS011;38238;53.304;6.606;2022-11-20T04:21:35;16.77;;;15.18;;
52284;SDS011;38238;53.304;6.606;2022-11-20T04:24:01;18.10;;;16.35;;
52284;SDS011;38238;53.304;6.606;2022-11-20T04:26:27;17.20;;;15.55;;
52284;SDS011;38238;53.304;6.606;2022-11-20T04:28:54;16.75;;;15.02;;
52284;SDS011;38238;53.304;6.606;2022-11-20T04:31:21;15.57;;;14.02;;
52284;SDS011;38238;53.304;6.606;2022-11-20T04:33:49;18.88;;;14.68;;
52284;SDS011;38238;53.304;6.606;2022-11-20T04:36:22;15.18;;;13.63;;
52284;SDS011;38238;53.304;6.606;2022-11-20T04:38:55;16.83;;;15.30;;
52284;SDS011;38238;53.304;6.606;2022-11-20T04:41:23;15.88;;;14.27;;
52284;SDS011;38238;53.304;6.606;2022-11-20T04:43:52;15.75;;;14.18;;
52284;SDS011;38238;53.304;6.606;2022-11-20T04:46:24;15.98;;;13.75;;
52284;SDS011;38238;53.304;6.606;2022-11-20T04:48:51;15.23;;;13.63;;
52284;SDS011;38238;53.304;6.606;2022-11-20T04:51:17;16.88;;;14.70;;
52284;SDS011;38238;53.304;6.606;2022-11-20T04:53:43;16.70;;;15.02;;
52284;SDS011;38238;53.304;6.606;2022-11-20T04:56:09;16.00;;;14.27;;
52284;SDS011;38238;53.304;6.606;2022-11-20T04:58:36;15.70;;;14.15;;
52284;SDS011;38238;53.304;6.606;2022-11-20T05:01:03;15.60;;;14.18;;
52284;SDS011;38238;53.304;6.606;2022-11-20T05:03:34;17.08;;;15.55;;
52284;SDS011;38238;53.304;6.606;2022-11-20T05:06:00;14.73;;;13.32;;
52284;SDS011;38238;53.304;6.606;2022-11-20T05:08:28;16.98;;;15.07;;
52284;SDS011;38238;53.304;6.606;2022-11-20T05:10:58;14.93;;;13.55;;
52284;SDS011;38238;53.304;6.606;2022-11-20T05:13:26;16.48;;;14.88;;
52284;SDS011;38238;53.304;6.606;2022-11-20T05:15:52;17.55;;;14.55;;
52284;SDS011;38238;53.304;6.606;2022-11-20T05:18:18;16.35;;;14.65;;
52284;SDS011;38238;53.304;6.606;2022-11-20T05:20:43;15.80;;;14.25;;
52284;SDS011;38238;53.304;6.606;2022-11-20T05:23:09;15.98;;;14.38;;
52284;SDS011;38238;53.304;6.606;2022-11-20T05:25:35;15.13;;;13.52;;
52284;SDS011;38238;53.304;6.606;2022-11-20T05:28:00;14.98;;;13.40;;
52284;SDS011;38238;53.304;6.606;2022-11-20T05:30:26;16.00;;;14.40;;
52284;SDS011;38238;53.304;6.606;2022-11-20T05:32:52;16.33;;;14.73;;
52284;SDS011;38238;53.304;6.606;2022-11-20T05:35:17;14.38;;;12.23;;
52284;SDS011;38238;53.304;6.606;2022-11-20T05:37:43;16.05;;;14.40;;
52284;SDS011;38238;53.304;6.606;2022-11-20T05:40:09;16.08;;;14.48;;
52284;SDS011;38238;53.304;6.606;2022-11-20T05:42:35;16.58;;;14.77;;
52284;SDS011;38238;53.304;6.606;2022-11-20T05:45:02;14.98;;;13.48;;
52284;SDS011;38238;53.304;6.606;2022-11-20T05:47:31;13.98;;;12.57;;
52284;SDS011;38238;53.304;6.606;2022-11-20T05:49:58;14.35;;;12.95;;
52284;SDS011;38238;53.304;6.606;2022-11-20T05:52:24;16.02;;;14.52;;
52284;SDS011;38238;53.304;6.606;2022-11-20T05:54:52;16.85;;;15.35;;
52284;SDS011;38238;53.304;6.606;2022-11-20T05:57:18;14.68;;;13.18;;
52284;SDS011;38238;53.304;6.606;2022-11-20T05:59:44;16.33;;;14.63;;
52284;SDS011;38238;53.304;6.606;2022-11-20T06:02:09;18.75;;;16.83;;
52284;SDS011;38238;53.304;6.606;2022-11-20T06:04:35;17.80;;;16.20;;
52284;SDS011;38238;53.304;6.606;2022-11-20T06:07:01;14.68;;;13.27;;
52284;SDS011;38238;53.304;6.606;2022-11-20T06:09:26;14.43;;;13.02;;
52284;SDS011;38238;53.304;6.606;2022-11-20T06:11:52;14.55;;;13.25;;
52284;SDS011;38238;53.304;6.606;2022-11-20T06:14:18;14.85;;;13.43;;
52284;SDS011;38238;53.304;6.606;2022-11-20T06:16:43;15.50;;;14.00;;
52284;SDS011;38238;53.304;6.606;2022-11-20T06:19:09;16.38;;;14.88;;
52284;SDS011;38238;53.304;6.606;2022-11-20T06:21:35;15.68;;;14.25;;
52284;SDS011;38238;53.304;6.606;2022-11-20T06:24:00;16.33;;;14.82;;
52284;SDS011;38238;53.304;6.606;2022-11-20T06:26:26;14.02;;;12.63;;
52284;SDS011;38238;53.304;6.606;2022-11-20T06:28:53;15.38;;;13.88;;
52284;SDS011;38238;53.304;6.606;2022-11-20T06:31:21;15.55;;;14.00;;
52284;SDS011;38238;53.304;6.606;2022-11-20T06:33:48;15.35;;;13.75;;
52284;SDS011;38238;53.304;6.606;2022-11-20T06:36:15;14.57;;;13.07;;
52284;SDS011;38238;53.304;6.606;2022-11-20T06:38:43;16.50;;;14.85;;
52284;SDS011;38238;53.304;6.606;2022-11-20T06:41:10;15.93;;;14.23;;
52284;SDS011;38238;53.304;6.606;2022-11-20T06:43:47;14.90;;;13.40;;
52284;SDS011;38238;53.304;6.606;2022-11-20T06:46:14;13.90;;;12.60;;
52284;SDS011;38238;53.304;6.606;2022-11-20T06:48:44;16.75;;;14.40;;
52284;SDS011;38238;53.304;6.606;2022-11-20T06:51:10;14.70;;;12.75;;
52284;SDS011;38238;53.304;6.606;2022-11-20T06:53:36;14.82;;;13.52;;
52284;SDS011;38238;53.304;6.606;2022-11-20T06:56:02;16.45;;;14.82;;
52284;SDS011;38238;53.304;6.606;2022-11-20T06:58:30;15.27;;;12.35;;
52284;SDS011;38238;53.304;6.606;2022-11-20T07:01:00;13.70;;;12.25;;
52284;SDS011;38238;53.304;6.606;2022-11-20T07:03:27;14.05;;;12.60;;
52284;SDS011;38238;53.304;6.606;2022-11-20T07:05:56;14.52;;;13.13;;
52284;SDS011;38238;53.304;6.606;2022-11-20T07:08:23;14.90;;;13.32;;
52284;SDS011;38238;53.304;6.606;2022-11-20T07:10:49;12.93;;;11.63;;
52284;SDS011;38238;53.304;6.606;2022-11-20T07:13:15;14.43;;;13.18;;
52284;SDS011;38238;53.304;6.606;2022-11-20T07:15:41;13.23;;;11.95;;
52284;SDS011;38238;53.304;6.606;2022-11-20T07:18:06;13.57;;;12.10;;
52284;SDS011;38238;53.304;6.606;2022-11-20T07:20:32;14.60;;;12.43;;
52284;SDS011;38238;53.304;6.606;2022-11-20T07:22:58;13.95;;;12.07;;
52284;SDS011;38238;53.304;6.606;2022-11-20T07:25:24;14.02;;;12.70;;
52284;SDS011;38238;53.304;6.606;2022-11-20T07:27:51;16.10;;;14.57;;
52284;SDS011;38238;53.304;6.606;2022-11-20T07:30:17;17.02;;;15.32;;
52284;SDS011;38238;53.304;6.606;2022-11-20T07:32:46;17.35;;;15.60;;
52284;SDS011;38238;53.304;6.606;2022-11-20T07:35:16;17.77;;;16.05;;
52284;SDS011;38238;53.304;6.606;2022-11-20T07:37:41;17.92;;;16.08;;
52284;SDS011;38238;53.304;6.606;2022-11-20T07:40:07;15.77;;;14.30;;
52284;SDS011;38238;53.304;6.606;2022-11-20T07:42:33;15.25;;;13.73;;
52284;SDS011;38238;53.304;6.606;2022-11-20T07:44:59;15.13;;;13.50;;
52284;SDS011;38238;53.304;6.606;2022-11-20T07:47:24;16.30;;;14.88;;
52284;SDS011;38238;53.304;6.606;2022-11-20T07:49:50;14.45;;;13.05;;
52284;SDS011;38238;53.304;6.606;2022-11-20T07:52:16;16.85;;;15.25;;
52284;SDS011;38238;53.304;6.606;2022-11-20T07:54:41;15.80;;;14.20;;
52284;SDS011;38238;53.304;6.606;2022-11-20T07:57:07;16.67;;;15.07;;
52284;SDS011;38238;53.304;6.606;2022-11-20T07:59:33;16.25;;;14.75;;
52284;SDS011;38238;53.304;6.606;2022-11-20T08:01:58;15.98;;;14.40;;
52284;SDS011;38238;53.304;6.606;2022-11-20T08:04:24;17.48;;;15.93;;
52284;SDS011;38238;53.304;6.606;2022-11-20T08:06:51;16.90;;;15.35;;
52284;SDS011;38238;53.304;6.606;2022-11-20T08:09:17;16.48;;;14.77;;
52284;SDS011;38238;53.304;6.606;2022-11-20T08:11:43;18.92;;;17.25;;
52284;SDS011;38238;53.304;6.606;2022-11-20T08:14:27;18.63;;;16.92;;
52284;SDS011;38238;53.304;6.606;2022-11-20T08:16:53;20.48;;;18.77;;
52284;SDS011;38238;53.304;6.606;2022-11-20T08:19:18;22.35;;;20.55;;
52284;SDS011;38238;53.304;6.606;2022-11-20T08:21:45;17.40;;;15.60;;
52284;SDS011;38238;53.304;6.606;2022-11-20T08:24:11;19.02;;;17.20;;
52284;SDS011;38238;53.304;6.606;2022-11-20T08:26:37;19.35;;;17.50;;
52284;SDS011;38238;53.304;6.606;2022-11-20T08:29:04;17.85;;;16.15;;
52284;SDS011;38238;53.304;6.606;2022-11-20T08:31:30;18.23;;;16.63;;
52284;SDS011;38238;53.304;6.606;2022-11-20T08:33:56;18.92;;;17.23;;
52284;SDS011;38238;53.304;6.606;2022-11-20T08:36:23;16.58;;;14.93;;
52284;SDS011;38238;53.304;6.606;2022-11-20T08:38:50;17.60;;;15.95;;
52284;SDS011;38238;53.304;6.606;2022-11-20T08:41:17;17.83;;;16.23;;
52284;SDS011;38238;53.304;6.606;2022-11-20T08:43:49;17.40;;;15.80;;
52284;SDS011;38238;53.304;6.606;2022-11-20T08:46:15;17.45;;;15.85;;
52284;SDS011;38238;53.304;6.606;2022-11-20T08:48:41;17.20;;;15.50;;
52284;SDS011;38238;53.304;6.606;2022-11-20T08:51:07;16.60;;;15.07;;
52284;SDS011;38238;53.304;6.606;2022-11-20T08:53:33;17.73;;;16.23;;
52284;SDS011;38238;53.304;6.606;2022-11-20T08:55:59;16.63;;;15.13;;
52284;SDS011;38238;53.304;6.606;2022-11-20T08:58:25;16.00;;;14.43;;
52284;SDS011;38238;53.304;6.606;2022-11-20T09:00:51;15.68;;;14.38;;
52284;SDS011;38238;53.304;6.606;2022-11-20T09:03:16;15.45;;;14.00;;
52284;SDS011;38238;53.304;6.606;2022-11-20T09:05:42;14.50;;;13.20;;
52284;SDS011;38238;53.304;6.606;2022-11-20T09:08:08;14.00;;;12.70;;
52284;SDS011;38238;53.304;6.606;2022-11-20T09:10:34;16.10;;;14.63;;
52284;SDS011;38238;53.304;6.606;2022-11-20T09:13:00;16.98;;;15.48;;
52284;SDS011;38238;53.304;6.606;2022-11-20T09:15:26;15.40;;;14.10;;
52284;SDS011;38238;53.304;6.606;2022-11-20T09:17:53;16.92;;;15.43;;
52284;SDS011;38238;53.304;6.606;2022-11-20T09:20:26;20.23;;;18.70;;
52284;SDS011;38238;53.304;6.606;2022-11-20T09:22:54;20.80;;;19.10;;
52284;SDS011;38238;53.304;6.606;2022-11-20T09:25:20;20.58;;;19.02;;
52284;SDS011;38238;53.304;6.606;2022-11-20T09:27:46;20.10;;;18.58;;
52284;SDS011;38238;53.304;6.606;2022-11-20T09:30:12;18.48;;;16.98;;
52284;SDS011;38238;53.304;6.606;2022-11-20T09:32:39;21.15;;;19.42;;
52284;SDS011;38238;53.304;6.606;2022-11-20T09:35:05;18.90;;;17.30;;
52284;SDS011;38238;53.304;6.606;2022-11-20T09:37:31;21.05;;;19.38;;
52284;SDS011;38238;53.304;6.606;2022-11-20T09:39:57;22.17;;;20.65;;
52284;SDS011;38238;53.304;6.606;2022-11-20T09:42:26;17.67;;;16.25;;
52284;SDS011;38238;53.304;6.606;2022-11-20T09:48:28;20.23;;;18.58;;
52284;SDS011;38238;53.304;6.606;2022-11-20T09:51:12;20.20;;;18.35;;
52284;SDS011;38238;53.304;6.606;2022-11-20T09:56:25;20.50;;;18.77;;
52284;SDS011;38238;53.304;6.606;2022-11-20T09:58:52;21.42;;;19.65;;
52284;SDS011;38238;53.304;6.606;2022-11-20T10:01:26;22.60;;;20.83;;
52284;SDS011;38238;53.304;6.606;2022-11-20T10:03:56;24.15;;;22.25;;
52284;SDS011;38238;53.304;6.606;2022-11-20T10:06:32;27.77;;;25.70;;
52284;SDS011;38238;53.304;6.606;2022-11-20T10:09:37;24.15;;;22.52;;
52284;SDS011;38238;53.304;6.606;2022-11-20T10:23:09;25.40;;;23.48;;
52284;SDS011;38238;53.304;6.606;2022-11-20T10:25:51;25.33;;;23.25;;
52284;SDS011;38238;53.304;6.606;2022-11-20T10:31:02;25.77;;;23.75;;
52284;SDS011;38238;53.304;6.606;2022-11-20T10:33:31;28.45;;;26.35;;
52284;SDS011;38238;53.304;6.606;2022-11-20T10:36:09;33.47;;;31.33;;
52284;SDS011;38238;53.304;6.606;2022-11-20T10:41:43;25.85;;;23.90;;
52284;SDS011;38238;53.304;6.606;2022-11-20T10:44:14;25.80;;;23.83;;
52284;SDS011;38238;53.304;6.606;2022-11-20T10:47:01;30.58;;;28.48;;
52284;SDS011;38238;53.304;6.606;2022-11-20T10:49:30;29.20;;;27.02;;
52284;SDS011;38238;53.304;6.606;2022-11-20T10:52:09;35.65;;;33.38;;
52284;SDS011;38238;53.304;6.606;2022-11-20T10:54:54;35.20;;;32.92;;
52284;SDS011;38238;53.304;6.606;2022-11-20T11:00:20;29.17;;;27.17;;
52284;SDS011;38238;53.304;6.606;2022-11-20T11:02:50;28.90;;;26.83;;
52284;SDS011;38238;53.304;6.606;2022-11-20T11:07:46;27.10;;;25.10;;
52284;SDS011;38238;53.304;6.606;2022-11-20T11:10:18;27.20;;;25.23;;
52284;SDS011;38238;53.304;6.606;2022-11-20T11:12:49;26.08;;;24.40;;
52284;SDS011;38238;53.304;6.606;2022-11-20T11:15:25;26.38;;;24.38;;
52284;SDS011;38238;53.304;6.606;2022-11-20T11:18:01;25.58;;;23.88;;
52284;SDS011;38238;53.304;6.606;2022-11-20T11:20:27;24.63;;;22.73;;
52284;SDS011;38238;53.304;6.606;2022-11-20T11:22:53;24.35;;;22.27;;
52284;SDS011;38238;53.304;6.606;2022-11-20T11:28:00;23.65;;;21.95;;
52284;SDS011;38238;53.304;6.606;2022-11-20T11:30:29;22.50;;;20.95;;
52284;SDS011;38238;53.304;6.606;2022-11-20T11:33:18;22.10;;;20.42;;
52284;SDS011;38238;53.304;6.606;2022-11-20T11:36:16;22.30;;;20.67;;
52284;SDS011;38238;53.304;6.606;2022-11-20T11:38:48;19.27;;;17.67;;
52284;SDS011;38238;53.304;6.606;2022-11-20T11:41:19;22.23;;;20.40;;
52284;SDS011;38238;53.304;6.606;2022-11-20T11:43:58;21.60;;;19.92;;
52284;SDS011;38238;53.304;6.606;2022-11-20T11:46:54;24.45;;;22.85;;
52284;SDS011;38238;53.304;6.606;2022-11-20T11:49:21;25.45;;;23.65;;
52284;SDS011;38238;53.304;6.606;2022-11-20T11:51:54;28.45;;;26.33;;
52284;SDS011;38238;53.304;6.606;2022-11-20T12:00:12;25.17;;;23.42;;
52284;SDS011;38238;53.304;6.606;2022-11-20T12:05:26;20.48;;;18.92;;
52284;SDS011;38238;53.304;6.606;2022-11-20T12:13:38;23.85;;;22.30;;
52284;SDS011;38238;53.304;6.606;2022-11-20T12:16:13;26.95;;;24.77;;
52284;SDS011;38238;53.304;6.606;2022-11-20T12:18:41;22.23;;;20.65;;
52284;SDS011;38238;53.304;6.606;2022-11-20T12:21:11;22.95;;;21.27;;
52284;SDS011;38238;53.304;6.606;2022-11-20T12:27:00;24.48;;;22.98;;
52284;SDS011;38238;53.304;6.606;2022-11-20T12:32:24;21.85;;;20.30;;
52284;SDS011;38238;53.304;6.606;2022-11-20T12:43:21;19.08;;;17.58;;
52284;SDS011;38238;53.304;6.606;2022-11-20T12:46:32;23.60;;;22.00;;
52284;SDS011;38238;53.304;6.606;2022-11-20T12:52:20;19.17;;;17.88;;
52284;SDS011;38238;53.304;6.606;2022-11-20T12:55:11;20.50;;;19.10;;
52284;SDS011;38238;53.304;6.606;2022-11-20T12:57:49;14.88;;;13.68;;
52284;SDS011;38238;53.304;6.606;2022-11-20T13:00:18;16.35;;;15.13;;
52284;SDS011;38238;53.304;6.606;2022-11-20T13:05:24;12.77;;;11.68;;
52284;SDS011;38238;53.304;6.606;2022-11-20T13:10:58;12.63;;;11.63;;
52284;SDS011;38238;53.304;6.606;2022-11-20T13:13:43;14.05;;;12.98;;
52284;SDS011;38238;53.304;6.606;2022-11-20T13:16:20;11.95;;;10.85;;
52284;SDS011;38238;53.304;6.606;2022-11-20T13:18:56;13.15;;;12.05;;
52284;SDS011;38238;53.304;6.606;2022-11-20T13:24:18;16.40;;;15.23;;
52284;SDS011;38238;53.304;6.606;2022-11-20T13:27:04;12.73;;;11.73;;
52284;SDS011;38238;53.304;6.606;2022-11-20T13:29:34;12.98;;;11.93;;
52284;SDS011;38238;53.304;6.606;2022-11-20T13:32:05;15.60;;;14.30;;
52284;SDS011;38238;53.304;6.606;2022-11-20T13:34:55;17.88;;;16.58;;
52284;SDS011;38238;53.304;6.606;2022-11-20T13:37:38;20.25;;;18.95;;
52284;SDS011;38238;53.304;6.606;2022-11-20T13:40:19;23.10;;;21.70;;
52284;SDS011;38238;53.304;6.606;2022-11-20T13:45:58;23.27;;;22.08;;
52284;SDS011;38238;53.304;6.606;2022-11-20T13:48:32;20.85;;;19.65;;
52284;SDS011;38238;53.304;6.606;2022-11-20T14:03:30;23.95;;;22.58;;
52284;SDS011;38238;53.304;6.606;2022-11-20T14:05:31;24.20;;;22.55;;
52284;SDS011;38238;53.304;6.606;2022-11-20T14:08:02;17.80;;;16.58;;
52284;SDS011;38238;53.304;6.606;2022-11-20T14:10:30;19.25;;;17.80;;
52284;SDS011;38238;53.304;6.606;2022-11-20T14:12:56;21.55;;;20.25;;
52284;SDS011;38238;53.304;6.606;2022-11-20T14:15:29;23.08;;;21.73;;
52284;SDS011;38238;53.304;6.606;2022-11-20T14:17:57;23.40;;;22.05;;
52284;SDS011;38238;53.304;6.606;2022-11-20T14:20:28;25.08;;;23.67;;
52284;SDS011;38238;53.304;6.606;2022-11-20T14:22:56;19.55;;;18.45;;
52284;SDS011;38238;53.304;6.606;2022-11-20T14:25:23;19.02;;;17.85;;
52284;SDS011;38238;53.304;6.606;2022-11-20T14:27:57;25.98;;;24.20;;
52284;SDS011;38238;53.304;6.606;2022-11-20T14:30:38;18.77;;;17.73;;
52284;SDS011;38238;53.304;6.606;2022-11-20T14:33:12;24.33;;;23.02;;
52284;SDS011;38238;53.304;6.606;2022-11-20T14:35:46;22.50;;;21.10;;
52284;SDS011;38238;53.304;6.606;2022-11-20T14:38:25;21.23;;;20.02;;
52284;SDS011;38238;53.304;6.606;2022-11-20T14:40:54;26.00;;;24.55;;
52284;SDS011;38238;53.304;6.606;2022-11-20T14:43:32;21.98;;;20.55;;
52284;SDS011;38238;53.304;6.606;2022-11-20T14:46:02;27.77;;;26.38;;
52284;SDS011;38238;53.304;6.606;2022-11-20T14:48:55;26.75;;;25.35;;
52284;SDS011;38238;53.304;6.606;2022-11-20T14:54:18;26.02;;;24.48;;
52284;SDS011;38238;53.304;6.606;2022-11-20T14:56:54;26.25;;;24.70;;
52284;SDS011;38238;53.304;6.606;2022-11-20T14:59:27;28.05;;;26.38;;
52284;SDS011;38238;53.304;6.606;2022-11-20T15:02:09;30.38;;;28.27;;
52284;SDS011;38238;53.304;6.606;2022-11-20T15:04:49;27.63;;;25.88;;
52284;SDS011;38238;53.304;6.606;2022-11-20T15:07:33;26.50;;;24.90;;
52284;SDS011;38238;53.304;6.606;2022-11-20T15:12:48;21.92;;;20.45;;
52284;SDS011;38238;53.304;6.606;2022-11-20T15:15:24;21.10;;;19.67;;
52284;SDS011;38238;53.304;6.606;2022-11-20T15:17:56;23.77;;;22.25;;
52284;SDS011;38238;53.304;6.606;2022-11-20T15:20:24;23.83;;;22.33;;
52284;SDS011;38238;53.304;6.606;2022-11-20T15:22:53;23.10;;;21.65;;
52284;SDS011;38238;53.304;6.606;2022-11-20T15:25:25;20.13;;;18.83;;
52284;SDS011;38238;53.304;6.606;2022-11-20T15:27:57;22.80;;;21.40;;
52284;SDS011;38238;53.304;6.606;2022-11-20T15:30:35;23.30;;;21.80;;
52284;SDS011;38238;53.304;6.606;2022-11-20T15:33:07;19.52;;;18.23;;
52284;SDS011;38238;53.304;6.606;2022-11-20T15:35:34;19.45;;;18.15;;
52284;SDS011;38238;53.304;6.606;2022-11-20T15:38:00;22.08;;;20.77;;
52284;SDS011;38238;53.304;6.606;2022-11-20T15:40:32;22.85;;;21.20;;
52284;SDS011;38238;53.304;6.606;2022-11-20T15:43:01;23.13;;;21.50;;
52284;SDS011;38238;53.304;6.606;2022-11-20T15:48:11;19.45;;;17.83;;
52284;SDS011;38238;53.304;6.606;2022-11-20T15:50:52;18.77;;;17.35;;
52284;SDS011;38238;53.304;6.606;2022-11-20T15:53:39;18.38;;;17.17;;
52284;SDS011;38238;53.304;6.606;2022-11-20T15:56:14;23.70;;;22.17;;
52284;SDS011;38238;53.304;6.606;2022-11-20T15:58:40;24.90;;;23.23;;
52284;SDS011;38238;53.304;6.606;2022-11-20T16:01:13;19.75;;;18.35;;
52284;SDS011;38238;53.304;6.606;2022-11-20T16:03:44;20.67;;;19.17;;
52284;SDS011;38238;53.304;6.606;2022-11-20T16:06:23;22.73;;;21.17;;
52284;SDS011;38238;53.304;6.606;2022-11-20T16:08:52;24.30;;;22.80;;
52284;SDS011;38238;53.304;6.606;2022-11-20T16:11:26;25.30;;;23.65;;
52284;SDS011;38238;53.304;6.606;2022-11-20T16:13:57;22.20;;;20.70;;